Time;durP1;ratioP1;P1;durP2;ratioP2;P2;SDS_P1;SDS_P2;PMS_P1;PMS_P2;Temp;Humidity;BMP_temperature;BMP_pressure;BME280_temperature;BME280_humidity;BME280_pressure;Samples;Min_cycle;Max_cycle;Signal;HPM_P1;HPM_P2
2023/04/03 00:01:54;;;;;;;5.80;5.30;;;6.80;99.90;;;;;;5034900;28;20397;-85
2023/04/03 00:04:20;;;;;;;5.70;5.20;;;6.90;99.90;;;;;;5034937;28;20460;-86
2023/04/03 00:06:45;;;;;;;5.60;5.10;;;6.90;99.90;;;;;;5034826;28;20382;-85
2023/04/03 00:09:11;;;;;;;5.93;5.40;;;6.80;99.90;;;;;;5035184;28;20868;-86
2023/04/03 00:11:36;;;;;;;5.10;4.70;;;6.80;99.90;;;;;;5053444;28;20381;-85
2023/04/03 00:14:02;;;;;;;5.63;5.13;;;6.90;99.90;;;;;;5053138;28;20401;-85
2023/04/03 00:16:27;;;;;;;6.20;5.10;;;6.90;99.90;;;;;;5034776;28;20389;-85
2023/04/03 00:18:53;;;;;;;5.40;4.90;;;6.80;99.90;;;;;;5034362;28;20390;-85
2023/04/03 00:21:18;;;;;;;5.30;4.80;;;6.60;99.90;;;;;;5056385;28;20405;-86
2023/04/03 00:23:44;;;;;;;5.75;5.15;;;6.80;99.90;;;;;;5054611;28;20387;-86
2023/04/03 00:26:10;;;;;;;5.65;5.25;;;6.60;99.90;;;;;;5037265;28;20483;-86
2023/04/03 00:28:35;;;;;;;5.40;5.00;;;6.60;99.90;;;;;;5049854;28;20413;-85
2023/04/03 00:31:01;;;;;;;5.40;5.00;;;6.70;99.90;;;;;;5042901;28;20445;-85
2023/04/03 00:33:26;;;;;;;5.20;4.80;;;6.70;99.90;;;;;;5057524;28;20751;-86
2023/04/03 00:35:52;;;;;;;5.57;5.07;;;6.60;99.90;;;;;;5038584;28;20385;-86
2023/04/03 00:38:18;;;;;;;4.80;4.40;;;6.80;99.90;;;;;;5035960;28;20447;-86
2023/04/03 00:40:47;;;;;;;4.73;4.40;;;6.80;99.90;;;;;;5051500;28;20413;-85
2023/04/03 00:43:14;;;;;;;4.32;4.03;;;6.80;99.90;;;;;;5034411;28;20902;-87
2023/04/03 00:45:42;;;;;;;5.65;4.40;;;6.90;99.90;;;;;;5068221;28;20468;-86
2023/04/03 00:48:12;;;;;;;4.70;4.30;;;6.90;99.90;;;;;;5054559;28;20653;-86
2023/04/03 00:50:41;;;;;;;3.97;3.67;;;7.00;99.90;;;;;;5054239;28;20421;-86
2023/04/03 00:53:09;;;;;;;3.83;3.45;;;7.00;99.90;;;;;;5062769;28;20391;-86
2023/04/03 00:55:36;;;;;;;4.30;3.90;;;7.00;99.90;;;;;;5054385;28;20395;-86
2023/04/03 00:58:02;;;;;;;5.25;4.00;;;6.80;99.90;;;;;;5055612;28;20402;-86
2023/04/03 01:00:28;;;;;;;4.90;4.50;;;6.90;99.90;;;;;;5054659;28;20790;-86
2023/04/03 01:02:54;;;;;;;4.50;4.10;;;6.90;99.90;;;;;;5057436;28;20454;-86
2023/04/03 01:05:21;;;;;;;4.13;3.72;;;6.80;99.90;;;;;;5074626;28;20380;-86
2023/04/03 01:07:48;;;;;;;3.60;3.30;;;6.80;99.90;;;;;;5056861;28;20387;-86
2023/04/03 01:10:16;;;;;;;3.80;3.50;;;6.80;99.90;;;;;;5057134;28;20384;-86
2023/04/03 01:12:45;;;;;;;3.47;3.17;;;6.90;99.90;;;;;;5074859;28;20448;-87
2023/04/03 01:15:18;;;;;;;4.00;3.70;;;6.80;99.90;;;;;;5074483;28;20945;-86
2023/04/03 01:17:52;;;;;;;3.63;3.33;;;6.80;99.90;;;;;;5056068;28;20436;-87
2023/04/03 01:20:34;;;;;;;3.60;3.30;;;6.60;99.90;;;;;;5056131;28;20925;-87
2023/04/03 01:23:11;;;;;;;4.10;3.80;;;6.60;99.90;;;;;;5073821;28;20383;-87
2023/04/03 01:25:49;;;;;;;3.95;3.65;;;6.60;99.90;;;;;;5056410;28;20960;-87
2023/04/03 01:28:20;;;;;;;3.67;3.37;;;6.60;99.90;;;;;;5071764;28;20439;-86
2023/04/03 01:31:13;;;;;;;3.80;3.50;;;6.40;99.90;;;;;;5057997;28;20388;-88
2023/04/03 01:33:39;;;;;;;3.80;3.50;;;6.50;99.90;;;;;;5048772;28;20510;-87
2023/04/03 01:36:05;;;;;;;4.40;3.20;;;6.50;99.90;;;;;;5055681;28;20392;-87
2023/04/03 01:38:31;;;;;;;3.90;3.60;;;6.40;99.90;;;;;;5055630;28;20384;-87
2023/04/03 01:40:57;;;;;;;3.60;3.30;;;6.30;99.90;;;;;;5055293;28;20502;-87
2023/04/03 01:43:22;;;;;;;3.70;3.40;;;6.20;99.90;;;;;;5073698;28;20454;-86
2023/04/03 01:45:49;;;;;;;2.92;2.60;;;6.30;99.90;;;;;;5038924;28;20403;-87
2023/04/03 01:48:15;;;;;;;3.35;3.05;;;6.30;99.90;;;;;;5039809;28;20382;-86
2023/04/03 01:50:41;;;;;;;3.43;2.90;;;6.30;99.90;;;;;;5053777;28;20384;-87
2023/04/03 01:53:07;;;;;;;4.30;2.90;;;6.40;99.90;;;;;;5053628;28;20420;-87
2023/04/03 01:55:32;;;;;;;3.10;2.90;;;6.30;99.90;;;;;;5053184;28;20477;-87
2023/04/03 01:57:58;;;;;;;2.63;2.43;;;6.40;99.90;;;;;;5053580;28;20385;-87
2023/04/03 02:00:23;;;;;;;3.57;2.93;;;6.10;99.90;;;;;;5035415;28;20843;-87
2023/04/03 02:02:49;;;;;;;3.13;2.83;;;6.10;99.90;;;;;;5053396;28;20386;-87
2023/04/03 02:05:15;;;;;;;3.30;3.00;;;6.30;99.90;;;;;;5053589;28;20416;-88
2023/04/03 02:07:41;;;;;;;2.70;2.50;;;6.30;99.90;;;;;;5035108;28;20377;-87
2023/04/03 02:10:06;;;;;;;2.77;2.57;;;6.20;99.90;;;;;;5053088;28;20491;-87
2023/04/03 02:12:32;;;;;;;3.80;2.70;;;6.20;99.90;;;;;;5053062;28;20388;-87
2023/04/03 02:14:58;;;;;;;3.10;2.90;;;6.10;99.90;;;;;;5035190;28;20390;-87
2023/04/03 02:17:23;;;;;;;2.70;2.50;;;6.10;99.90;;;;;;5054938;28;20393;-86
2023/04/03 02:19:49;;;;;;;2.60;2.40;;;6.20;99.90;;;;;;5035078;28;20373;-87
2023/04/03 02:22:15;;;;;;;3.40;3.00;;;6.10;99.90;;;;;;5035733;28;20447;-85
2023/04/03 02:24:41;;;;;;;3.20;2.90;;;5.90;99.90;;;;;;5035996;28;20378;-86
2023/04/03 02:27:07;;;;;;;3.60;3.10;;;6.00;99.90;;;;;;5037977;28;20903;-86
2023/04/03 02:29:32;;;;;;;3.80;3.00;;;6.10;99.90;;;;;;5037762;28;20476;-85
2023/04/03 02:31:58;;;;;;;3.80;3.20;;;6.00;99.90;;;;;;5035603;28;20492;-86
2023/04/03 02:34:23;;;;;;;3.20;2.90;;;5.90;99.90;;;;;;5035136;28;20831;-86
2023/04/03 02:36:49;;;;;;;3.15;2.95;;;5.90;99.90;;;;;;5035398;28;20421;-86
2023/04/03 02:39:15;;;;;;;3.47;3.17;;;5.90;99.90;;;;;;5052751;28;20393;-86
2023/04/03 02:41:41;;;;;;;3.37;3.07;;;6.00;99.90;;;;;;5034894;28;20413;-85
2023/04/03 02:44:09;;;;;;;3.33;3.00;;;6.00;99.90;;;;;;5055127;28;20392;-86
2023/04/03 02:46:34;;;;;;;3.10;2.90;;;5.90;99.90;;;;;;5054564;28;20388;-86
2023/04/03 02:49:00;;;;;;;3.50;3.20;;;5.60;99.90;;;;;;5072445;28;20387;-86
2023/04/03 02:51:25;;;;;;;3.50;3.20;;;5.50;99.90;;;;;;5054573;28;20447;-86
2023/04/03 02:53:51;;;;;;;3.23;3.00;;;5.50;99.90;;;;;;5054763;28;20383;-85
2023/04/03 02:56:19;;;;;;;3.30;3.00;;;5.60;99.90;;;;;;5054219;28;20491;-86
2023/04/03 02:58:44;;;;;;;3.80;3.50;;;5.50;99.90;;;;;;5054149;28;20391;-86
2023/04/03 03:01:11;;;;;;;3.80;3.50;;;5.50;99.90;;;;;;5072513;28;20415;-86
2023/04/03 03:03:36;;;;;;;3.90;3.60;;;5.50;99.90;;;;;;5072444;28;20399;-86
2023/04/03 03:06:04;;;;;;;3.90;3.50;;;5.50;99.90;;;;;;5054097;28;20406;-86
2023/04/03 03:08:30;;;;;;;2.92;2.72;;;5.60;99.90;;;;;;5055144;28;20372;-86
2023/04/03 03:10:55;;;;;;;3.40;3.00;;;5.70;99.90;;;;;;5054791;28;20883;-86
2023/04/03 03:13:21;;;;;;;3.30;3.00;;;5.70;99.90;;;;;;5073092;28;20399;-86
2023/04/03 03:15:46;;;;;;;3.13;2.83;;;5.70;99.90;;;;;;5054682;28;20411;-86
2023/04/03 03:18:12;;;;;;;3.40;3.10;;;5.70;99.90;;;;;;5073011;28;20391;-86
2023/04/03 03:20:37;;;;;;;4.07;3.20;;;5.60;99.90;;;;;;5073862;28;20449;-86
2023/04/03 03:23:03;;;;;;;3.70;3.40;;;5.50;99.90;;;;;;5055625;28;20388;-86
2023/04/03 03:25:28;;;;;;;3.40;3.10;;;5.60;99.90;;;;;;5071503;28;20392;-86
2023/04/03 03:27:54;;;;;;;3.03;2.83;;;5.60;99.90;;;;;;5054650;28;20442;-86
2023/04/03 03:30:19;;;;;;;3.20;2.90;;;5.50;99.90;;;;;;5055006;28;20469;-86
2023/04/03 03:32:45;;;;;;;3.30;3.00;;;5.50;99.90;;;;;;5055011;28;20388;-87
2023/04/03 03:35:10;;;;;;;4.70;3.00;;;5.60;99.90;;;;;;5056501;28;20449;-86
2023/04/03 03:37:36;;;;;;;3.45;3.15;;;5.70;99.90;;;;;;5073690;28;20391;-86
2023/04/03 03:40:02;;;;;;;3.10;2.70;;;5.60;99.90;;;;;;5054719;28;20392;-86
2023/04/03 03:42:27;;;;;;;2.50;2.30;;;5.70;99.90;;;;;;5055120;28;20380;-86
2023/04/03 03:44:53;;;;;;;2.80;2.60;;;5.60;99.90;;;;;;5046419;28;20404;-87
2023/04/03 03:47:19;;;;;;;3.00;2.70;;;5.70;99.90;;;;;;5035079;28;20510;-87
2023/04/03 03:49:44;;;;;;;2.47;2.28;;;5.80;99.90;;;;;;5035159;28;20864;-87
2023/04/03 03:52:10;;;;;;;2.60;2.40;;;5.70;99.90;;;;;;5035956;28;20381;-88
2023/04/03 03:54:37;;;;;;;2.80;2.60;;;5.70;99.90;;;;;;5037172;28;20472;-88
2023/04/03 03:57:02;;;;;;;2.67;2.47;;;5.70;99.90;;;;;;5062047;28;20449;-88
2023/04/03 03:59:28;;;;;;;2.00;1.90;;;5.70;99.90;;;;;;5055065;28;20397;-87
2023/04/03 04:01:53;;;;;;;2.40;2.20;;;5.60;99.90;;;;;;5051236;28;20393;-87
2023/04/03 04:04:19;;;;;;;3.00;2.65;;;5.60;99.90;;;;;;5053875;28;20396;-87
2023/04/03 04:06:45;;;;;;;2.33;2.13;;;5.50;99.90;;;;;;5034269;28;20373;-87
2023/04/03 04:09:12;;;;;;;2.80;2.50;;;5.50;99.90;;;;;;5052279;28;20761;-87
2023/04/03 04:11:39;;;;;;;2.45;2.17;;;5.50;99.90;;;;;;5034862;28;20399;-87
2023/04/03 04:14:05;;;;;;;2.50;2.30;;;5.50;99.90;;;;;;5034613;28;20897;-87
2023/04/03 04:16:31;;;;;;;2.60;2.40;;;5.40;99.90;;;;;;5033992;28;20413;-87
2023/04/03 04:18:56;;;;;;;2.50;2.10;;;5.50;99.90;;;;;;5034254;28;20378;-87
2023/04/03 04:21:22;;;;;;;2.40;2.20;;;5.60;99.90;;;;;;5034180;28;20417;-87
2023/04/03 04:23:47;;;;;;;2.50;2.30;;;5.60;99.90;;;;;;5052474;28;20902;-87
2023/04/03 04:26:13;;;;;;;2.20;2.00;;;5.50;99.90;;;;;;5035101;28;20448;-87
2023/04/03 04:28:38;;;;;;;2.47;2.20;;;5.40;99.90;;;;;;5036618;28;20402;-87
2023/04/03 04:31:04;;;;;;;2.30;2.20;;;5.40;99.90;;;;;;5053018;28;20381;-87
2023/04/03 04:33:29;;;;;;;2.73;2.53;;;5.50;99.90;;;;;;5033968;28;20446;-87
2023/04/03 04:35:55;;;;;;;2.93;2.30;;;5.40;99.90;;;;;;5033852;28;20411;-87
2023/04/03 04:38:21;;;;;;;2.42;2.22;;;5.50;99.90;;;;;;5055488;28;20381;-87
2023/04/03 04:40:48;;;;;;;2.30;2.10;;;5.70;99.90;;;;;;5055697;28;20404;-87
2023/04/03 04:43:14;;;;;;;2.50;2.00;;;5.60;99.90;;;;;;5037768;28;20543;-86
2023/04/03 04:45:40;;;;;;;2.35;2.10;;;5.60;99.90;;;;;;5070723;28;20478;-87
2023/04/03 04:48:05;;;;;;;2.53;2.33;;;5.50;99.90;;;;;;5057735;28;20372;-87
2023/04/03 04:50:31;;;;;;;2.20;2.10;;;5.40;99.90;;;;;;5075489;28;20738;-87
2023/04/03 04:52:56;;;;;;;2.40;2.20;;;5.40;99.90;;;;;;5058344;28;20388;-87
2023/04/03 04:55:23;;;;;;;2.57;2.00;;;5.60;99.90;;;;;;5057400;28;20814;-87
2023/04/03 04:57:48;;;;;;;2.25;2.00;;;5.60;99.90;;;;;;5067616;28;20392;-88
2023/04/03 05:00:14;;;;;;;2.60;2.40;;;5.40;99.90;;;;;;5063331;28;20935;-87
2023/04/03 05:02:40;;;;;;;2.10;2.00;;;5.50;99.90;;;;;;5058177;28;20382;-87
2023/04/03 05:05:06;;;;;;;2.37;2.17;;;5.40;99.90;;;;;;5074815;28;20388;-87
2023/04/03 05:07:31;;;;;;;2.00;1.90;;;5.50;99.90;;;;;;5057641;28;20790;-87
2023/04/03 05:09:57;;;;;;;2.20;2.00;;;5.60;99.90;;;;;;5057016;28;20376;-86
2023/04/03 05:12:22;;;;;;;2.90;2.20;;;5.70;99.90;;;;;;5057157;28;20436;-87
2023/04/03 05:14:48;;;;;;;2.60;2.40;;;5.60;99.90;;;;;;5075264;28;20380;-87
2023/04/03 05:17:13;;;;;;;2.50;2.30;;;5.60;99.90;;;;;;5057647;28;20490;-87
2023/04/03 05:19:39;;;;;;;2.50;2.30;;;5.50;99.90;;;;;;5059809;28;20481;-87
2023/04/03 05:22:05;;;;;;;2.45;2.25;;;5.40;99.90;;;;;;5076154;28;20414;-87
2023/04/03 05:24:30;;;;;;;2.70;2.50;;;5.50;99.90;;;;;;5062907;28;20548;-87
2023/04/03 05:26:56;;;;;;;2.50;2.30;;;5.40;99.90;;;;;;5062747;28;20755;-87
2023/04/03 05:29:22;;;;;;;2.33;2.13;;;5.60;99.90;;;;;;5062040;28;20407;-87
2023/04/03 05:31:50;;;;;;;2.60;2.40;;;5.60;99.90;;;;;;5058152;28;20924;-87
2023/04/03 05:34:15;;;;;;;2.47;2.30;;;5.50;99.90;;;;;;5093228;28;20455;-88
2023/04/03 05:36:42;;;;;;;2.30;2.10;;;5.60;99.90;;;;;;5079523;28;20404;-88
2023/04/03 05:39:07;;;;;;;2.60;2.40;;;5.70;99.90;;;;;;5079457;28;20426;-88
2023/04/03 05:41:33;;;;;;;2.40;2.20;;;5.50;99.90;;;;;;5080060;28;20403;-88
2023/04/03 05:43:58;;;;;;;2.65;2.40;;;5.70;99.90;;;;;;5078273;28;20390;-88
2023/04/03 05:46:24;;;;;;;2.30;2.05;;;5.60;99.90;;;;;;5057601;28;20412;-87
2023/04/03 05:48:50;;;;;;;2.40;2.20;;;5.70;99.90;;;;;;5054574;28;20459;-88
2023/04/03 05:51:18;;;;;;;2.40;2.20;;;5.70;99.90;;;;;;5075149;28;20388;-88
2023/04/03 05:53:45;;;;;;;2.08;1.98;;;5.80;99.90;;;;;;5076610;28;20382;-88
2023/04/03 05:56:11;;;;;;;3.00;2.45;;;5.70;99.90;;;;;;5057302;28;20388;-88
2023/04/03 05:58:37;;;;;;;2.10;2.00;;;5.70;99.90;;;;;;5065957;28;20417;-87
2023/04/03 06:01:02;;;;;;;2.70;2.50;;;5.80;99.90;;;;;;5035798;28;20440;-87
2023/04/03 06:03:28;;;;;;;2.30;2.10;;;6.00;99.90;;;;;;5035672;28;20523;-87
2023/04/03 06:05:53;;;;;;;2.10;2.00;;;6.10;99.90;;;;;;5036820;28;20369;-87
2023/04/03 06:08:19;;;;;;;2.28;2.17;;;6.20;99.90;;;;;;5056489;28;20458;-87
2023/04/03 06:10:45;;;;;;;2.40;2.20;;;6.30;99.90;;;;;;5071718;28;20445;-88
2023/04/03 06:13:11;;;;;;;2.47;2.20;;;6.30;99.90;;;;;;5076901;28;20451;-88
2023/04/03 06:15:38;;;;;;;2.30;2.10;;;6.40;99.90;;;;;;5077490;28;20476;-88
2023/04/03 06:18:03;;;;;;;2.50;2.30;;;6.40;99.90;;;;;;5059937;28;20397;-88
2023/04/03 06:20:29;;;;;;;2.25;2.05;;;6.40;99.90;;;;;;5039214;28;20416;-86
2023/04/03 06:22:54;;;;;;;2.20;2.00;;;6.60;99.90;;;;;;5037196;28;20384;-85
2023/04/03 06:25:21;;;;;;;2.47;2.27;;;6.80;99.90;;;;;;5055025;28;20430;-86
2023/04/03 06:27:46;;;;;;;2.03;1.92;;;6.60;99.90;;;;;;5035324;28;20492;-87
2023/04/03 06:30:12;;;;;;;2.90;2.35;;;6.60;99.90;;;;;;5061469;28;20897;-87
2023/04/03 06:32:38;;;;;;;2.40;1.90;;;6.80;99.90;;;;;;5055756;28;20384;-87
2023/04/03 06:35:05;;;;;;;1.90;1.80;;;6.70;99.90;;;;;;5072116;28;20376;-87
2023/04/03 06:37:32;;;;;;;2.10;2.00;;;6.70;99.90;;;;;;5056513;28;20444;-85
2023/04/03 06:39:58;;;;;;;1.90;1.80;;;6.70;99.90;;;;;;5054531;28;20388;-86
2023/04/03 06:42:23;;;;;;;2.00;1.90;;;6.70;99.90;;;;;;5072235;28;20399;-86
2023/04/03 06:44:49;;;;;;;2.00;1.90;;;6.60;99.90;;;;;;5054531;28;20479;-86
2023/04/03 06:47:16;;;;;;;2.13;1.90;;;6.70;99.90;;;;;;5054715;28;20388;-86
2023/04/03 06:49:42;;;;;;;2.15;1.90;;;6.70;99.90;;;;;;5056012;28;20390;-86
2023/04/03 06:52:08;;;;;;;2.05;1.95;;;6.80;94.20;;;;;;5054507;28;20407;-86
2023/04/03 06:54:34;;;;;;;2.38;2.03;;;6.90;96.20;;;;;;5072131;28;20792;-86
2023/04/03 06:57:00;;;;;;;2.30;2.10;;;6.80;85.10;;;;;;5053997;28;20758;-86
2023/04/03 06:59:26;;;;;;;2.10;1.90;;;6.80;85.20;;;;;;5054081;28;20384;-85
2023/04/03 07:01:51;;;;;;;1.90;1.60;;;6.70;91.50;;;;;;5057427;28;20494;-86
2023/04/03 07:04:18;;;;;;;1.70;1.60;;;6.80;93.30;;;;;;5055049;28;20384;-86
2023/04/03 07:06:43;;;;;;;2.20;2.00;;;6.80;92.50;;;;;;5054425;28;20877;-86
2023/04/03 07:09:10;;;;;;;2.10;1.90;;;6.80;95.70;;;;;;5054525;28;20474;-85
2023/04/03 07:11:36;;;;;;;1.88;1.67;;;7.00;80.80;;;;;;5054326;28;20471;-85
2023/04/03 07:14:02;;;;;;;2.00;1.90;;;6.80;73.70;;;;;;5053832;28;20916;-85
2023/04/03 07:16:30;;;;;;;1.98;1.88;;;6.80;72.10;;;;;;5053548;28;20525;-86
2023/04/03 07:18:57;;;;;;;1.70;1.60;;;6.80;67.20;;;;;;5071677;28;20384;-85
2023/04/03 07:21:22;;;;;;;2.00;1.80;;;6.80;67.80;;;;;;5053487;28;20460;-86
2023/04/03 07:23:48;;;;;;;2.07;1.97;;;6.90;72.70;;;;;;5053901;28;20936;-85
2023/04/03 07:26:14;;;;;;;2.20;2.00;;;6.90;70.60;;;;;;5053408;28;20387;-86
2023/04/03 07:28:41;;;;;;;2.30;2.10;;;7.00;67.70;;;;;;5053601;28;20384;-85
2023/04/03 07:31:10;;;;;;;2.28;2.00;;;7.10;70.00;;;;;;5054939;28;20800;-85
2023/04/03 07:33:36;;;;;;;2.40;2.20;;;7.20;59.50;;;;;;5071930;28;20383;-85
2023/04/03 07:36:03;;;;;;;2.30;2.10;;;7.10;58.40;;;;;;5053250;28;20889;-86
2023/04/03 07:38:29;;;;;;;2.58;2.38;;;7.10;59.40;;;;;;5053608;28;20442;-86
2023/04/03 07:40:54;;;;;;;2.70;2.50;;;7.10;57.00;;;;;;5053572;28;20813;-86
2023/04/03 07:43:21;;;;;;;2.50;2.30;;;6.90;55.50;;;;;;5053586;28;20890;-86
2023/04/03 07:45:49;;;;;;;2.50;2.25;;;7.20;68.20;;;;;;5054838;28;20412;-86
2023/04/03 07:48:19;;;;;;;2.60;2.30;;;7.30;62.90;;;;;;5051674;28;20381;-86
2023/04/03 07:50:45;;;;;;;2.95;2.55;;;7.50;58.60;;;;;;5051348;28;20458;-85
2023/04/03 07:53:11;;;;;;;2.50;2.30;;;7.60;58.70;;;;;;5032722;28;20485;-87
2023/04/03 07:55:42;;;;;;;2.70;2.50;;;7.80;63.50;;;;;;5033393;28;20389;-86
2023/04/03 07:58:10;;;;;;;3.30;3.10;;;7.80;59.10;;;;;;5033797;28;20382;-86
2023/04/03 08:00:36;;;;;;;2.80;2.60;;;7.60;56.50;;;;;;5051870;28;20484;-88
2023/04/03 08:03:01;;;;;;;2.92;2.72;;;7.60;53.80;;;;;;5059790;28;20530;-88
2023/04/03 08:05:27;;;;;;;2.80;2.60;;;7.60;52.90;;;;;;5052791;28;20799;-85
2023/04/03 08:07:52;;;;;;;2.88;2.60;;;7.80;54.40;;;;;;5070889;28;20388;-85
2023/04/03 08:10:18;;;;;;;2.90;2.70;;;7.80;56.50;;;;;;5053534;28;20380;-84
2023/04/03 08:12:46;;;;;;;3.00;2.57;;;7.80;55.90;;;;;;5057371;28;21033;-84
2023/04/03 08:15:12;;;;;;;2.60;2.40;;;7.80;53.70;;;;;;5079906;28;20380;-85
2023/04/03 08:17:37;;;;;;;3.23;2.90;;;7.50;55.50;;;;;;5076809;28;20372;-85
2023/04/03 08:20:06;;;;;;;3.40;3.00;;;7.60;50.50;;;;;;5056942;28;20901;-84
2023/04/03 08:22:32;;;;;;;2.90;2.70;;;7.90;56.40;;;;;;5057367;28;20473;-84
2023/04/03 08:24:57;;;;;;;3.20;2.90;;;8.10;50.00;;;;;;5057167;28;20375;-85
2023/04/03 08:27:23;;;;;;;3.60;3.30;;;7.70;50.10;;;;;;5056409;28;20470;-84
2023/04/03 08:29:49;;;;;;;3.67;3.37;;;7.90;50.60;;;;;;5056864;28;20434;-84
2023/04/03 08:32:14;;;;;;;3.60;3.28;;;7.80;49.40;;;;;;5074900;28;20387;-85
2023/04/03 08:34:40;;;;;;;3.70;3.30;;;7.90;52.20;;;;;;5057216;28;20746;-84
2023/04/03 08:37:06;;;;;;;3.40;3.10;;;8.00;50.80;;;;;;5056438;28;20773;-84
2023/04/03 08:39:31;;;;;;;2.97;2.67;;;8.00;50.10;;;;;;5056541;28;20399;-84
2023/04/03 08:41:59;;;;;;;3.50;3.20;;;8.00;50.50;;;;;;5074080;28;20399;-85
2023/04/03 08:44:31;;;;;;;4.15;3.00;;;7.90;46.40;;;;;;5049132;28;20392;-84
2023/04/03 08:47:09;;;;;;;3.58;3.28;;;8.00;53.60;;;;;;5075414;28;20492;-84
2023/04/03 08:49:40;;;;;;;2.78;2.58;;;8.10;46.40;;;;;;5075211;28;20745;-84
2023/04/03 08:52:12;;;;;;;3.00;2.80;;;7.90;45.00;;;;;;5056717;28;20399;-85
2023/04/03 08:54:50;;;;;;;3.27;3.00;;;8.10;45.90;;;;;;5056904;28;20452;-84
2023/04/03 08:57:17;;;;;;;3.20;3.00;;;8.30;42.40;;;;;;5056874;28;20396;-84
2023/04/03 08:59:43;;;;;;;3.20;2.90;;;8.20;42.70;;;;;;5057292;28;20474;-84
2023/04/03 09:02:26;;;;;;;3.40;3.10;;;7.90;40.50;;;;;;5057141;28;20511;-84
2023/04/03 09:04:53;;;;;;;3.33;3.08;;;7.80;40.30;;;;;;5056801;28;20390;-84
2023/04/03 09:07:39;;;;;;;3.22;3.00;;;8.00;41.80;;;;;;5074602;28;20411;-84
2023/04/03 09:10:05;;;;;;;3.10;2.90;;;7.90;38.80;;;;;;5057705;28;20376;-84
2023/04/03 09:12:44;;;;;;;3.10;2.80;;;8.10;35.30;;;;;;5060981;28;20396;-84
2023/04/03 09:15:20;;;;;;;3.10;2.80;;;8.10;37.60;;;;;;5057933;28;20391;-85
2023/04/03 09:17:59;;;;;;;3.20;2.90;;;8.20;36.50;;;;;;5074602;28;20961;-84
2023/04/03 09:20:43;;;;;;;3.57;3.00;;;8.60;37.40;;;;;;5074596;28;20396;-85
2023/04/03 09:23:40;;;;;;;3.30;3.00;;;8.60;36.10;;;;;;5073286;28;20463;-83
2023/04/03 09:26:14;;;;;;;3.28;2.97;;;8.60;35.30;;;;;;5074130;28;20441;-84
2023/04/03 09:28:42;;;;;;;3.70;3.17;;;8.50;34.80;;;;;;5074996;28;20463;-84
2023/04/03 09:31:23;;;;;;;3.30;3.10;;;8.10;35.60;;;;;;5074501;28;20380;-84
2023/04/03 09:33:52;;;;;;;3.30;3.00;;;7.90;36.70;;;;;;5055708;28;20437;-84
2023/04/03 09:36:37;;;;;;;4.10;3.40;;;7.80;38.70;;;;;;5056143;28;20984;-84
2023/04/03 09:39:05;;;;;;;2.78;2.55;;;7.90;35.60;;;;;;5056302;28;20435;-84
2023/04/03 09:41:32;;;;;;;3.15;2.75;;;7.60;31.30;;;;;;5056731;28;20400;-84
2023/04/03 09:43:58;;;;;;;2.50;2.30;;;7.60;31.90;;;;;;5074824;28;20380;-84
2023/04/03 09:46:32;;;;;;;2.33;2.13;;;7.30;31.70;;;;;;5056284;28;20380;-84
2023/04/03 09:49:06;;;;;;;2.20;2.00;;;7.60;29.70;;;;;;5058906;28;20376;-84
2023/04/03 09:51:32;;;;;;;2.60;2.40;;;7.50;31.90;;;;;;5058535;28;20387;-83
2023/04/03 09:53:58;;;;;;;2.90;2.60;;;7.40;28.90;;;;;;5055910;28;20449;-84
2023/04/03 09:56:31;;;;;;;3.50;2.15;;;7.70;29.70;;;;;;5055706;28;20395;-84
2023/04/03 09:58:59;;;;;;;2.25;1.80;;;8.00;28.90;;;;;;5056115;28;20388;-84
2023/04/03 10:01:37;;;;;;;3.00;2.20;;;8.00;27.20;;;;;;5055684;28;20952;-84
2023/04/03 10:04:06;;;;;;;2.00;1.80;;;8.40;26.60;;;;;;5055859;28;20471;-84
2023/04/03 10:06:35;;;;;;;1.67;1.58;;;8.40;27.80;;;;;;5072357;28;20411;-84
2023/04/03 10:09:28;;;;;;;1.70;1.60;;;8.50;24.70;;;;;;5054432;28;20463;-84
2023/04/03 10:12:10;;;;;;;2.10;1.80;;;8.90;25.50;;;;;;5073464;28;20418;-84
2023/04/03 10:15:01;;;;;;;2.30;1.85;;;9.00;22.90;;;;;;5056407;28;20388;-84
2023/04/03 10:17:51;;;;;;;1.92;1.73;;;8.70;24.00;;;;;;5072756;28;20388;-84
2023/04/03 10:20:36;;;;;;;1.73;1.63;;;8.40;23.00;;;;;;5055364;28;20391;-84
2023/04/03 10:23:39;;;;;;;2.20;2.00;;;8.50;25.60;;;;;;5055173;28;20719;-85
2023/04/03 10:26:32;;;;;;;2.30;2.10;;;8.60;23.10;;;;;;5055544;28;20384;-84
2023/04/03 10:29:26;;;;;;;2.40;1.80;;;8.80;21.90;;;;;;5074300;28;20383;-84
2023/04/03 10:32:32;;;;;;;1.77;1.67;;;8.70;24.20;;;;;;5056102;28;20398;-84
2023/04/03 10:35:13;;;;;;;1.88;1.77;;;8.70;24.30;;;;;;5056254;28;20475;-84
2023/04/03 10:37:59;;;;;;;1.63;1.40;;;8.80;23.60;;;;;;5073187;28;20380;-84
2023/04/03 10:40:37;;;;;;;2.00;1.80;;;8.70;20.90;;;;;;5060868;28;20407;-84
2023/04/03 10:43:16;;;;;;;2.00;1.90;;;8.20;21.20;;;;;;5060322;28;20388;-84
2023/04/03 10:45:44;;;;;;;2.40;2.20;;;8.30;22.60;;;;;;5038708;28;20381;-84
2023/04/03 10:48:27;;;;;;;2.88;1.80;;;8.40;22.00;;;;;;5034616;28;20390;-84
2023/04/03 10:51:06;;;;;;;2.33;2.10;;;8.30;24.70;;;;;;5034994;28;20883;-85
2023/04/03 10:53:53;;;;;;;2.20;2.00;;;8.40;24.50;;;;;;5034948;28;20783;-84
2023/04/03 10:56:36;;;;;;;1.88;1.77;;;8.50;25.10;;;;;;5052228;28;20415;-84
2023/04/03 10:59:28;;;;;;;2.63;1.93;;;8.30;24.40;;;;;;5034083;28;20443;-84
2023/04/03 11:02:01;;;;;;;2.30;2.10;;;8.30;25.00;;;;;;5022938;28;20459;-85
2023/04/03 11:04:30;;;;;;;2.17;2.08;;;8.50;25.60;;;;;;5052427;28;20394;-85
2023/04/03 11:07:09;;;;;;;2.83;2.10;;;8.40;23.20;;;;;;5052695;28;20389;-84
2023/04/03 11:09:42;;;;;;;2.40;2.20;;;8.50;22.90;;;;;;5035401;28;20385;-85
2023/04/03 11:12:28;;;;;;;2.20;2.00;;;8.30;24.60;;;;;;5053305;28;20385;-85
2023/04/03 11:14:55;;;;;;;2.35;2.00;;;8.40;23.90;;;;;;5034867;28;20396;-84
2023/04/03 11:17:31;;;;;;;2.80;2.50;;;8.50;24.40;;;;;;5051968;28;20475;-84
2023/04/03 11:20:09;;;;;;;2.70;2.50;;;8.50;22.70;;;;;;5053410;28;20401;-84
2023/04/03 11:22:43;;;;;;;2.17;1.92;;;8.80;25.20;;;;;;5037358;28;20397;-84
2023/04/03 11:25:10;;;;;;;2.20;2.10;;;9.00;24.30;;;;;;5033609;28;20504;-85
2023/04/03 11:27:55;;;;;;;1.70;1.60;;;8.90;23.20;;;;;;5033414;28;20430;-84
2023/04/03 11:30:49;;;;;;;2.20;2.00;;;9.10;24.90;;;;;;5033939;28;20447;-85
2023/04/03 11:33:20;;;;;;;2.10;1.85;;;9.20;22.70;;;;;;5033450;28;20373;-84
2023/04/03 11:35:49;;;;;;;2.28;2.08;;;8.90;21.00;;;;;;5051395;28;20926;-85
2023/04/03 11:38:36;;;;;;;2.65;2.10;;;9.00;23.80;;;;;;5033443;28;20388;-85
2023/04/03 11:41:04;;;;;;;2.80;2.20;;;8.70;21.80;;;;;;5051006;28;20437;-85
2023/04/03 11:43:31;;;;;;;2.47;2.08;;;9.20;24.00;;;;;;5051217;28;20388;-85
2023/04/03 11:46:02;;;;;;;2.00;1.70;;;8.80;22.10;;;;;;5050289;28;20437;-84
2023/04/03 11:48:33;;;;;;;3.00;2.10;;;8.80;23.50;;;;;;5053129;28;20375;-85
2023/04/03 11:51:11;;;;;;;2.08;1.80;;;8.70;23.30;;;;;;5070852;28;20475;-85
2023/04/03 11:53:39;;;;;;;2.40;2.20;;;9.30;23.20;;;;;;5071028;28;20395;-85
2023/04/03 11:56:23;;;;;;;1.90;1.80;;;9.50;24.50;;;;;;5052895;28;20878;-84
2023/04/03 11:59:11;;;;;;;2.72;2.50;;;9.60;19.80;;;;;;5052989;28;20897;-84
2023/04/03 12:01:50;;;;;;;2.25;2.05;;;10.20;18.90;;;;;;5071450;28;20410;-85
2023/04/03 12:04:18;;;;;;;2.10;1.90;;;10.10;19.90;;;;;;5092571;28;20437;-84
2023/04/03 12:06:48;;;;;;;2.20;2.00;;;10.00;19.00;;;;;;5091019;28;20383;-84
2023/04/03 12:09:27;;;;;;;2.05;1.80;;;10.10;19.00;;;;;;5075257;28;20421;-84
2023/04/03 12:11:54;;;;;;;2.00;1.77;;;10.10;18.80;;;;;;5066656;28;20765;-84
2023/04/03 12:14:25;;;;;;;2.35;2.15;;;9.90;19.10;;;;;;5073760;28;20407;-84
2023/04/03 12:16:52;;;;;;;1.92;1.80;;;9.50;19.90;;;;;;5054088;28;20399;-85
2023/04/03 12:19:20;;;;;;;1.90;1.80;;;9.40;20.20;;;;;;5054019;28;20399;-84
2023/04/03 12:21:46;;;;;;;2.35;2.15;;;9.20;23.30;;;;;;5071932;28;20402;-84
2023/04/03 12:24:20;;;;;;;2.20;2.00;;;9.30;21.00;;;;;;5071732;28;20376;-84
2023/04/03 12:27:14;;;;;;;3.90;2.10;;;9.40;20.50;;;;;;5052761;28;20482;-85
2023/04/03 12:30:11;;;;;;;2.25;2.05;;;9.20;22.90;;;;;;5055129;28;20468;-85
2023/04/03 12:32:42;;;;;;;2.05;1.85;;;9.30;21.20;;;;;;5058030;28;20468;-83
2023/04/03 12:35:40;;;;;;;2.20;2.00;;;9.30;21.60;;;;;;5074490;28;20509;-83
2023/04/03 12:38:41;;;;;;;2.20;2.00;;;9.20;19.30;;;;;;5066745;28;20400;-83
2023/04/03 12:41:30;;;;;;;2.30;2.10;;;8.70;20.80;;;;;;5053244;28;20411;-85
2023/04/03 12:44:15;;;;;;;2.45;2.25;;;8.90;19.80;;;;;;5070021;28;20379;-82
2023/04/03 12:46:52;;;;;;;2.90;1.85;;;8.90;19.90;;;;;;5050851;28;20384;-82
2023/04/03 12:49:40;;;;;;;2.00;1.90;;;9.40;19.90;;;;;;5032715;28;20393;-83
2023/04/03 12:52:21;;;;;;;2.17;2.03;;;9.20;20.30;;;;;;5033247;28;20446;-83
2023/04/03 12:54:47;;;;;;;2.05;1.83;;;9.40;19.50;;;;;;5036926;28;20866;-83
2023/04/03 12:57:23;;;;;;;2.40;2.20;;;9.30;19.00;;;;;;5057870;28;20397;-83
2023/04/03 12:59:49;;;;;;;2.90;2.10;;;9.50;20.40;;;;;;5059275;28;20478;-83
2023/04/03 13:02:31;;;;;;;2.22;2.03;;;9.40;20.30;;;;;;5054540;28;20472;-83
2023/04/03 13:05:04;;;;;;;2.15;1.98;;;9.10;21.10;;;;;;5036444;28;20374;-83
2023/04/03 13:07:33;;;;;;;2.40;2.00;;;8.90;19.30;;;;;;5036713;28;20389;-83
2023/04/03 13:10:19;;;;;;;2.20;1.90;;;8.90;21.00;;;;;;5037562;28;20532;-83
2023/04/03 13:12:54;;;;;;;2.42;2.00;;;9.30;20.50;;;;;;5039210;28;20386;-83